Washington, District of Columbia
Traffic Map
Current Weather Conditions
Washington, District of Columbia
Overcast Light Rain
Overcast
34°
Feels Like: 25°
Wind Chill: 25° Ceiling: 3500
Heat Index: 34° Visibility: 10mi
Dew Point: 24° Wind: 12mph
Humidity: 67% Direction: 170° (S)
Pressure: 30.15in Gusts: 0mph
Raw Report DataKDCA 032152Z 17010KT 10SM -RA OVC035 01/M04 A3015 RMK AO2 SLP210 P0001 T00111044
Traffic Incident Summary
Active as of:
Severity:
Category:
InformationThere was an issue retrieving the traffic information for this location. Please try a different location or try again shortly.
Advertisements
Track Severe Weather on mobile